LPA weather

La Palma Airport
Bosconia, César Department, Colombia

Public forecast

Using degrees Celsius for public forecast. Weather courtesy of forecast.io.

METAR (pilot weather report)

Closest report is Alfonso López Pumarejo Airport, 51.1 nm (94.6 km) NE. Retrieved 2019/07/16 16:00 UTC (13 minutes ago):

SKVP 161600Z VRB04KT 9999 FEW015 33/22 A2995

TAF (pilot weather forecast)

Closest forecast is Ernesto Cortissoz International Airport, 83.0 nm (153.7 km) NW. Retrieved 2019/07/16 12:46 UTC (3 hours ago):

TAF SKBQ 161030Z 1612/1712 01004KT 9999 FEW015 TEMPO 1612/1614 4000 BR SCT010 BECMG 1615/1617 34014KT PROB30 TEMPO 1618/1622 RA SCT015CB TX33/1617Z TN25/1711Z